Time;durP1;ratioP1;P1;durP2;ratioP2;P2;SDS_P1;SDS_P2;PMS_P1;PMS_P2;Temp;Humidity;BMP_temperature;BMP_pressure;BME280_temperature;BME280_humidity;BME280_pressure;Samples;Min_cycle;Max_cycle;Signal;HPM_P1;HPM_P2
2022/11/09 00:00:07;;;;;;;3.22;1.60;;;15.30;1.00;;;;;;4994888;28;20240;-78
2022/11/09 00:02:34;;;;;;;3.28;1.40;;;15.30;1.00;;;;;;5002093;28;20284;-78
2022/11/09 00:05:09;;;;;;;1.80;1.50;;;15.30;1.00;;;;;;4998584;28;20307;-79
2022/11/09 00:07:36;;;;;;;3.63;1.50;;;15.20;1.00;;;;;;4981351;28;20236;-78
2022/11/09 00:10:03;;;;;;;3.53;1.38;;;15.30;1.00;;;;;;4976517;28;20197;-79
2022/11/09 00:12:30;;;;;;;1.77;1.42;;;15.30;1.00;;;;;;4997476;28;20177;-78
2022/11/09 00:14:57;;;;;;;2.38;1.50;;;15.40;1.00;;;;;;4981165;28;20279;-78
2022/11/09 00:17:24;;;;;;;3.00;1.50;;;15.30;1.00;;;;;;4996612;28;20220;-77
2022/11/09 00:19:51;;;;;;;4.25;1.50;;;15.40;1.00;;;;;;4996476;28;20210;-78
2022/11/09 00:22:19;;;;;;;2.10;1.50;;;15.30;1.00;;;;;;4994274;28;20232;-79
2022/11/09 00:24:46;;;;;;;3.80;1.58;;;15.20;1.00;;;;;;4979635;28;20209;-79
2022/11/09 00:27:13;;;;;;;2.38;1.42;;;15.30;1.00;;;;;;4979926;28;20217;-79
2022/11/09 00:29:43;;;;;;;3.67;1.58;;;15.30;1.00;;;;;;4992894;28;20227;-78
2022/11/09 00:32:10;;;;;;;3.17;1.80;;;15.30;1.00;;;;;;4989514;28;20200;-79
2022/11/09 00:34:38;;;;;;;3.05;1.50;;;15.30;1.00;;;;;;4960798;28;20287;-79
2022/11/09 00:37:05;;;;;;;2.90;1.48;;;15.30;1.00;;;;;;4995602;28;20205;-78
2022/11/09 00:39:32;;;;;;;4.18;1.40;;;15.30;1.00;;;;;;4992072;28;20264;-78
2022/11/09 00:41:59;;;;;;;5.78;2.00;;;15.30;1.00;;;;;;4998511;28;20236;-78
2022/11/09 00:44:28;;;;;;;3.08;1.50;;;15.30;1.00;;;;;;4993934;28;20762;-78
2022/11/09 00:46:55;;;;;;;2.47;1.35;;;15.30;1.00;;;;;;4981392;28;20218;-78
2022/11/09 00:49:23;;;;;;;1.90;1.30;;;15.20;1.00;;;;;;4993742;28;20660;-78
2022/11/09 00:51:50;;;;;;;1.80;1.50;;;15.30;1.00;;;;;;4992313;28;20202;-78
2022/11/09 00:54:17;;;;;;;1.75;1.30;;;15.30;1.00;;;;;;4991950;28;20193;-78
2022/11/09 00:56:44;;;;;;;1.83;1.30;;;15.20;1.00;;;;;;4989747;28;20221;-78
2022/11/09 00:59:12;;;;;;;3.00;1.20;;;15.40;1.00;;;;;;4976301;28;20252;-79
2022/11/09 01:01:39;;;;;;;2.50;1.60;;;15.50;1.00;;;;;;4980592;28;20224;-78
2022/11/09 01:04:06;;;;;;;2.85;1.40;;;15.40;1.00;;;;;;4988856;28;20237;-79
2022/11/09 01:06:36;;;;;;;2.50;1.40;;;15.40;1.00;;;;;;4993743;28;20296;-79
2022/11/09 01:09:03;;;;;;;4.35;1.33;;;15.40;1.00;;;;;;4994040;28;20201;-82
2022/11/09 01:11:30;;;;;;;2.22;1.40;;;15.50;1.00;;;;;;5011801;28;20197;-78
2022/11/09 01:13:59;;;;;;;2.10;1.30;;;15.50;1.00;;;;;;4995709;28;20189;-78
2022/11/09 01:16:29;;;;;;;2.60;1.33;;;15.40;1.00;;;;;;4992876;28;20803;-78
2022/11/09 01:18:57;;;;;;;3.95;1.40;;;15.40;1.00;;;;;;4990426;28;20202;-79
2022/11/09 01:21:26;;;;;;;3.15;1.35;;;15.40;1.00;;;;;;4974125;28;20197;-79
2022/11/09 01:23:54;;;;;;;2.10;1.40;;;15.40;1.00;;;;;;4996016;28;20219;-79
2022/11/09 01:26:21;;;;;;;1.23;1.10;;;15.50;1.00;;;;;;5007667;28;20213;-79
2022/11/09 01:28:50;;;;;;;2.42;1.58;;;15.30;1.00;;;;;;4990813;28;20235;-79
2022/11/09 01:31:18;;;;;;;1.48;1.20;;;15.30;1.00;;;;;;4979977;28;20201;-79
2022/11/09 01:33:46;;;;;;;1.77;1.25;;;15.30;1.00;;;;;;4991536;28;20201;-80
2022/11/09 01:36:16;;;;;;;1.67;1.50;;;15.40;1.00;;;;;;4993387;28;20701;-79
2022/11/09 01:38:44;;;;;;;4.05;1.63;;;15.30;1.00;;;;;;4990729;28;20211;-80
2022/11/09 01:41:14;;;;;;;1.10;1.00;;;15.40;1.00;;;;;;5010013;28;20798;-80
2022/11/09 01:43:42;;;;;;;3.88;1.45;;;15.40;1.00;;;;;;4997249;28;20200;-79
2022/11/09 01:46:16;;;;;;;2.85;1.23;;;15.30;1.00;;;;;;4972886;28;20327;-79
2022/11/09 01:48:52;;;;;;;3.63;1.50;;;15.30;1.00;;;;;;4969899;28;20209;-79
2022/11/09 01:51:36;;;;;;;3.70;1.50;;;15.30;1.00;;;;;;4988737;28;20211;-79
2022/11/09 01:54:14;;;;;;;2.50;1.63;;;15.30;1.00;;;;;;4982793;28;20307;-79
2022/11/09 01:56:43;;;;;;;7.53;1.38;;;15.30;1.00;;;;;;5002593;28;20688;-79
2022/11/09 01:59:21;;;;;;;2.55;1.60;;;15.30;1.00;;;;;;4975583;28;20243;-79
2022/11/09 02:01:50;;;;;;;2.90;1.47;;;15.20;1.00;;;;;;4991475;28;20420;-79
2022/11/09 02:04:35;;;;;;;2.42;1.70;;;15.40;1.00;;;;;;4983643;28;20232;-80
2022/11/09 02:07:03;;;;;;;1.88;1.52;;;15.30;1.00;;;;;;5000786;28;20216;-79
2022/11/09 02:09:59;;;;;;;2.78;1.35;;;15.20;1.00;;;;;;4987103;28;20208;-79
2022/11/09 02:12:30;;;;;;;3.50;1.90;;;15.30;1.00;;;;;;4980671;28;20645;-79
2022/11/09 02:14:58;;;;;;;2.45;1.65;;;15.20;1.00;;;;;;4987029;28;20235;-79
2022/11/09 02:17:26;;;;;;;3.10;2.13;;;15.10;1.00;;;;;;4998781;28;20208;-80
2022/11/09 02:19:55;;;;;;;5.07;1.47;;;15.20;1.00;;;;;;4980650;28;20221;-79
2022/11/09 02:22:22;;;;;;;3.03;1.60;;;15.10;1.00;;;;;;5001084;28;20197;-80
2022/11/09 02:24:51;;;;;;;2.40;1.30;;;15.00;1.00;;;;;;4996118;28;20314;-79
2022/11/09 02:27:22;;;;;;;3.60;1.50;;;15.00;1.00;;;;;;5017327;23;20583;-70
2022/11/09 02:29:51;;;;;;;1.70;1.37;;;15.00;1.00;;;;;;5000807;28;20206;-71
2022/11/09 02:32:21;;;;;;;2.00;1.50;;;14.90;1.00;;;;;;4988535;28;20197;-67
2022/11/09 02:34:50;;;;;;;2.73;1.57;;;14.90;1.00;;;;;;4963818;28;20721;-69
2022/11/09 02:37:24;;;;;;;3.80;1.50;;;14.90;1.00;;;;;;5003672;28;20270;-69
2022/11/09 02:39:53;;;;;;;3.20;1.70;;;15.00;1.00;;;;;;5005580;28;20773;-69
2022/11/09 02:42:20;;;;;;;2.10;1.52;;;15.00;1.00;;;;;;4982553;28;20202;-69
2022/11/09 02:44:57;;;;;;;2.53;1.63;;;15.00;1.00;;;;;;5004547;28;20775;-69
2022/11/09 02:47:25;;;;;;;3.88;1.90;;;14.90;1.00;;;;;;4996744;28;20252;-70
2022/11/09 02:49:52;;;;;;;6.25;3.50;;;14.90;1.00;;;;;;4988281;28;20677;-70
2022/11/09 02:52:19;;;;;;;3.70;2.20;;;14.90;1.00;;;;;;4986480;28;20250;-69
2022/11/09 02:54:46;;;;;;;2.85;1.50;;;14.90;1.00;;;;;;5004173;28;20930;-69
2022/11/09 02:57:13;;;;;;;2.67;1.25;;;14.90;1.00;;;;;;4989028;28;20578;-68
2022/11/09 02:59:41;;;;;;;5.90;1.52;;;14.90;1.00;;;;;;4989577;28;20364;-70
2022/11/09 03:02:09;;;;;;;2.97;1.30;;;14.80;1.00;;;;;;4988605;28;20740;-71
2022/11/09 03:04:36;;;;;;;2.38;1.55;;;14.80;1.00;;;;;;4989591;28;20185;-69
2022/11/09 03:07:04;;;;;;;3.73;1.40;;;14.70;1.00;;;;;;4989962;28;20272;-71
2022/11/09 03:09:31;;;;;;;1.70;1.50;;;14.80;1.00;;;;;;4989485;28;20684;-67
2022/11/09 03:12:27;;;;;;;5.20;1.80;;;14.70;1.00;;;;;;4988438;28;20280;-69
2022/11/09 03:14:46;;;;;;;3.35;1.50;;;14.80;1.00;;;;;;4989903;28;20204;-70
2022/11/09 03:17:13;;;;;;;3.37;1.43;;;14.80;1.00;;;;;;4998690;28;20248;-69
2022/11/09 03:19:39;;;;;;;2.95;1.45;;;14.70;1.00;;;;;;4992355;28;20285;-67
2022/11/09 03:22:06;;;;;;;3.23;1.70;;;14.80;1.00;;;;;;4990320;28;20221;-68
2022/11/09 03:24:33;;;;;;;3.55;1.45;;;14.70;1.00;;;;;;4967231;28;20277;-69
2022/11/09 03:27:01;;;;;;;2.75;1.60;;;14.70;1.00;;;;;;5005077;28;20296;-68
2022/11/09 03:29:28;;;;;;;4.07;1.77;;;14.70;1.00;;;;;;4989481;28;20264;-68
2022/11/09 03:31:55;;;;;;;3.08;1.30;;;14.70;1.00;;;;;;4989347;28;20200;-68
2022/11/09 03:34:22;;;;;;;3.45;1.50;;;14.70;1.00;;;;;;4983624;28;20293;-69
2022/11/09 03:36:49;;;;;;;5.57;1.48;;;14.70;1.00;;;;;;4986018;28;20672;-68
2022/11/09 03:39:17;;;;;;;2.53;1.65;;;14.70;1.00;;;;;;5003387;28;20212;-70
2022/11/09 03:41:44;;;;;;;3.30;1.40;;;14.60;1.00;;;;;;4981076;28;20289;-69
2022/11/09 03:44:11;;;;;;;4.23;1.40;;;14.60;1.00;;;;;;4966326;28;20591;-70
2022/11/09 03:46:38;;;;;;;3.73;1.73;;;14.60;1.00;;;;;;4971665;28;20533;-70
2022/11/09 03:49:04;;;;;;;2.33;1.40;;;14.60;1.00;;;;;;4989792;28;20289;-66
2022/11/09 03:51:31;;;;;;;2.20;1.67;;;14.50;1.00;;;;;;4986481;28;20208;-65
2022/11/09 03:53:59;;;;;;;5.53;1.53;;;14.50;1.00;;;;;;4991234;28;20202;-65
2022/11/09 03:56:25;;;;;;;2.47;1.30;;;14.50;1.00;;;;;;4989064;28;20730;-68
2022/11/09 03:58:53;;;;;;;3.77;1.60;;;14.60;1.00;;;;;;4988239;28;20324;-65
2022/11/09 04:01:19;;;;;;;2.50;1.40;;;14.60;1.00;;;;;;4988016;28;20204;-68
2022/11/09 04:03:46;;;;;;;7.37;2.10;;;14.60;1.00;;;;;;4986310;28;20198;-67
2022/11/09 04:06:13;;;;;;;2.93;1.43;;;14.70;1.00;;;;;;4987672;28;20284;-68
2022/11/09 04:08:40;;;;;;;6.00;1.43;;;14.60;1.00;;;;;;4983962;28;20193;-67
2022/11/09 04:11:12;;;;;;;4.90;1.65;;;14.60;1.00;;;;;;4995275;28;20445;-67
2022/11/09 04:13:39;;;;;;;3.08;1.40;;;14.50;1.00;;;;;;4981143;28;20190;-68
2022/11/09 04:16:06;;;;;;;2.75;1.55;;;14.50;1.00;;;;;;4988229;28;20561;-68
2022/11/09 04:18:33;;;;;;;5.88;1.88;;;14.60;1.00;;;;;;4982094;28;20629;-68
2022/11/09 04:21:00;;;;;;;4.28;1.40;;;14.50;1.00;;;;;;4991125;28;20189;-68
2022/11/09 04:23:27;;;;;;;3.73;1.80;;;14.50;1.00;;;;;;4990509;28;20205;-67
2022/11/09 04:25:58;;;;;;;3.73;1.23;;;14.50;1.00;;;;;;4986123;28;20237;-67
2022/11/09 04:28:25;;;;;;;5.80;1.50;;;14.50;1.00;;;;;;4989229;28;20257;-67
2022/11/09 04:30:52;;;;;;;2.87;1.60;;;14.50;1.00;;;;;;4987054;28;20208;-66
2022/11/09 04:33:19;;;;;;;2.50;1.63;;;14.50;1.00;;;;;;4989639;28;20263;-68
2022/11/09 04:35:47;;;;;;;4.68;1.65;;;14.50;1.00;;;;;;4985297;28;20269;-67
2022/11/09 04:38:14;;;;;;;2.93;1.57;;;14.50;1.00;;;;;;4987125;28;20235;-68
2022/11/09 04:40:41;;;;;;;3.97;1.73;;;14.50;1.00;;;;;;4984789;28;20257;-68
2022/11/09 04:43:11;;;;;;;4.37;1.50;;;14.60;1.00;;;;;;4981626;28;20222;-66
2022/11/09 04:45:38;;;;;;;3.85;1.30;;;14.60;1.00;;;;;;4968137;28;20206;-67
2022/11/09 04:48:06;;;;;;;5.33;1.70;;;14.60;1.00;;;;;;4988969;28;20260;-67
2022/11/09 04:50:33;;;;;;;4.37;1.60;;;14.60;1.00;;;;;;5001171;28;20216;-66
2022/11/09 04:53:12;;;;;;;3.85;1.63;;;14.60;1.00;;;;;;4979486;28;20193;-67
2022/11/09 04:55:40;;;;;;;3.33;1.70;;;14.60;1.00;;;;;;4987386;28;20193;-67
2022/11/09 04:58:07;;;;;;;3.53;1.73;;;14.60;1.00;;;;;;4983050;28;20248;-68
2022/11/09 05:00:34;;;;;;;2.13;1.50;;;14.60;1.00;;;;;;4987587;28;20235;-69
2022/11/09 05:03:04;;;;;;;5.18;1.70;;;14.60;1.00;;;;;;4988246;28;20205;-69
2022/11/09 05:05:36;;;;;;;3.67;1.38;;;14.50;1.00;;;;;;4985818;28;20221;-67
2022/11/09 05:08:04;;;;;;;6.18;1.92;;;14.50;1.00;;;;;;4986343;28;20301;-67
2022/11/09 05:10:31;;;;;;;5.20;2.23;;;14.50;1.00;;;;;;4970095;28;20512;-69
2022/11/09 05:13:10;;;;;;;3.63;1.80;;;14.50;1.00;;;;;;4987296;28;20208;-68
2022/11/09 05:15:37;;;;;;;4.77;1.67;;;14.40;1.00;;;;;;4986767;28;20221;-67
2022/11/09 05:18:05;;;;;;;3.10;1.60;;;14.50;1.00;;;;;;4987958;28;20962;-67
2022/11/09 05:20:32;;;;;;;3.67;2.20;;;14.40;1.00;;;;;;4987717;28;20535;-65
2022/11/09 05:25:46;;;;;;;3.10;1.75;;;14.50;1.00;;;;;;4988157;28;20314;-66
2022/11/09 05:31:16;;;;;;;5.47;1.80;;;14.50;1.00;;;;;;5137238;23;20246;-63
2022/11/09 05:33:43;;;;;;;4.53;1.83;;;14.50;1.00;;;;;;4850468;29;20713;-66
2022/11/09 05:36:10;;;;;;;3.93;2.03;;;14.40;1.00;;;;;;4837889;29;20210;-65
2022/11/09 05:38:37;;;;;;;2.20;1.47;;;14.40;1.00;;;;;;4854598;29;20210;-67
2022/11/09 05:41:04;;;;;;;2.47;1.70;;;14.40;1.00;;;;;;4838952;29;20206;-65
2022/11/09 05:43:31;;;;;;;3.83;1.73;;;14.30;1.00;;;;;;4850707;29;20217;-64
2022/11/09 05:45:57;;;;;;;1.90;1.50;;;14.30;1.00;;;;;;4853684;29;20202;-65
2022/11/09 05:48:32;;;;;;;1.52;1.08;;;14.40;1.00;;;;;;4809616;29;20272;-65
2022/11/09 05:51:03;;;;;;;3.35;2.00;;;14.40;1.00;;;;;;4853270;29;20202;-64
2022/11/09 05:53:31;;;;;;;1.60;1.20;;;14.50;1.00;;;;;;4744553;29;72648;-65
2022/11/09 05:56:08;;;;;;;3.92;1.90;;;14.40;1.00;;;;;;4805728;29;20571;-64
2022/11/09 05:58:37;;;;;;;5.20;2.23;;;14.30;1.00;;;;;;4827274;29;20217;-66
2022/11/09 06:01:06;;;;;;;3.53;1.80;;;14.40;1.00;;;;;;4858018;29;20222;-64
2022/11/09 06:03:32;;;;;;;5.47;2.20;;;14.50;1.00;;;;;;4845129;29;20578;-66
2022/11/09 06:06:02;;;;;;;5.27;2.70;;;14.40;1.00;;;;;;4857925;29;20206;-63
2022/11/09 06:08:34;;;;;;;5.60;3.20;;;14.60;1.00;;;;;;4842634;29;20262;-64
2022/11/09 06:14:06;;;;;;;6.60;2.90;;;14.60;1.00;;;;;;4839172;23;20468;-67
2022/11/09 06:16:33;;;;;;;5.07;2.80;;;14.50;1.00;;;;;;4843697;29;20211;-65
2022/11/09 06:19:00;;;;;;;5.97;3.38;;;14.40;1.00;;;;;;4842364;29;20286;-65
2022/11/09 06:21:27;;;;;;;7.63;4.18;;;14.30;1.00;;;;;;4843739;29;20217;-66
2022/11/09 06:23:54;;;;;;;13.33;9.73;;;14.30;1.00;;;;;;4859123;29;20943;-63
2022/11/09 06:26:21;;;;;;;6.73;3.73;;;14.30;1.00;;;;;;4843629;29;20243;-65
2022/11/09 06:28:48;;;;;;;2.17;1.73;;;14.20;1.00;;;;;;4842994;29;20765;-65
2022/11/09 06:31:17;;;;;;;11.55;7.32;;;14.20;1.00;;;;;;4844822;29;20267;-64
2022/11/09 06:33:44;;;;;;;11.30;5.60;;;14.20;1.00;;;;;;4843780;29;20195;-65
2022/11/09 06:36:11;;;;;;;10.40;7.07;;;14.20;1.00;;;;;;4842769;29;20207;-64
2022/11/09 06:38:39;;;;;;;6.63;3.87;;;14.20;1.00;;;;;;4844338;29;20267;-67
2022/11/09 06:41:06;;;;;;;9.00;3.27;;;14.00;1.00;;;;;;4837896;29;20214;-65
2022/11/09 06:43:33;;;;;;;6.37;2.80;;;14.00;1.00;;;;;;4842608;29;20204;-63
2022/11/09 06:46:02;;;;;;;6.20;3.80;;;14.00;1.00;;;;;;4842256;29;20307;-65
2022/11/09 06:48:29;;;;;;;7.30;2.70;;;13.90;1.00;;;;;;4840933;29;20358;-64
2022/11/09 06:51:00;;;;;;;5.80;2.30;;;13.80;1.00;;;;;;4842858;29;20253;-65
2022/11/09 06:53:29;;;;;;;7.13;3.53;;;13.90;1.00;;;;;;4840165;29;20206;-64
2022/11/09 06:56:01;;;;;;;11.60;5.17;;;13.90;1.00;;;;;;4843579;29;20195;-63
2022/11/09 06:58:29;;;;;;;10.83;4.20;;;13.80;1.00;;;;;;4846541;29;20203;-63
2022/11/09 07:00:56;;;;;;;12.13;3.27;;;13.80;1.00;;;;;;4844955;29;20211;-64
2022/11/09 07:03:23;;;;;;;5.20;2.53;;;13.80;1.00;;;;;;4845571;29;20563;-65
2022/11/09 07:05:52;;;;;;;7.13;3.20;;;13.80;1.00;;;;;;4842251;29;20207;-64
2022/11/09 07:08:19;;;;;;;7.10;1.93;;;13.80;1.00;;;;;;4859556;29;20583;-64
2022/11/09 07:10:46;;;;;;;4.63;1.40;;;13.80;1.00;;;;;;4842657;29;20207;-65
2022/11/09 07:13:13;;;;;;;4.50;1.97;;;13.70;1.00;;;;;;4841933;29;20537;-64
2022/11/09 07:15:40;;;;;;;4.37;1.57;;;13.80;1.00;;;;;;4846748;29;20207;-64
2022/11/09 07:18:10;;;;;;;4.10;2.07;;;13.80;1.00;;;;;;4850719;29;20570;-63
2022/11/09 07:20:37;;;;;;;5.50;1.70;;;13.80;1.00;;;;;;4843454;29;20294;-66
2022/11/09 07:23:04;;;;;;;7.13;1.90;;;13.80;1.00;;;;;;4853222;29;20709;-65
2022/11/09 07:25:32;;;;;;;6.00;1.60;;;13.80;1.00;;;;;;4845249;29;20203;-64
2022/11/09 07:28:07;;;;;;;2.73;1.40;;;13.70;1.00;;;;;;4847884;29;20405;-64
2022/11/09 07:30:35;;;;;;;6.67;2.03;;;13.70;1.00;;;;;;4839820;29;20202;-65
2022/11/09 07:33:03;;;;;;;6.40;2.00;;;13.70;1.00;;;;;;4844143;29;20259;-64
2022/11/09 07:35:36;;;;;;;4.33;1.80;;;13.70;1.00;;;;;;4843193;29;20571;-64
2022/11/09 07:38:04;;;;;;;8.27;1.70;;;13.80;1.00;;;;;;4842546;29;20210;-65
2022/11/09 07:40:30;;;;;;;7.90;2.40;;;13.80;1.00;;;;;;4846005;29;20202;-65
2022/11/09 07:42:59;;;;;;;4.07;1.60;;;13.80;1.00;;;;;;4842602;29;20248;-66
2022/11/09 07:45:28;;;;;;;4.27;1.40;;;13.80;1.00;;;;;;4844110;29;20202;-65
2022/11/09 07:48:07;;;;;;;6.73;1.80;;;13.80;1.00;;;;;;4843097;29;20207;-65
2022/11/09 07:50:36;;;;;;;4.57;1.50;;;13.70;1.00;;;;;;4852624;29;20217;-65
2022/11/09 07:53:04;;;;;;;6.03;1.70;;;13.70;1.00;;;;;;4844701;29;20233;-65
2022/11/09 07:55:31;;;;;;;5.17;1.70;;;13.60;1.00;;;;;;4840759;29;21248;-64
2022/11/09 07:58:01;;;;;;;4.27;1.37;;;13.60;1.00;;;;;;4843046;29;20369;-64
2022/11/09 08:00:31;;;;;;;4.23;1.40;;;13.60;1.00;;;;;;4845548;29;20302;-65
2022/11/09 08:02:58;;;;;;;5.33;1.60;;;13.60;1.00;;;;;;4843908;29;20222;-65
2022/11/09 08:05:25;;;;;;;9.87;1.77;;;13.60;1.00;;;;;;4842095;29;20674;-64
2022/11/09 08:07:57;;;;;;;6.07;1.70;;;13.70;1.00;;;;;;4845269;29;20229;-64
2022/11/09 08:10:25;;;;;;;3.17;1.60;;;13.80;1.00;;;;;;4857137;29;20305;-64
2022/11/09 08:13:13;;;;;;;1.63;1.20;;;13.80;1.00;;;;;;4845783;29;20769;-65
2022/11/09 08:15:41;;;;;;;3.53;1.43;;;13.90;1.00;;;;;;4845352;29;20202;-65
2022/11/09 08:18:12;;;;;;;5.27;1.53;;;14.00;1.00;;;;;;4844483;29;20254;-63
2022/11/09 08:20:39;;;;;;;4.57;1.33;;;14.00;1.00;;;;;;4843961;29;20210;-63
2022/11/09 08:23:06;;;;;;;2.97;1.40;;;14.00;1.00;;;;;;4842893;29;20563;-64
2022/11/09 08:25:35;;;;;;;2.97;1.40;;;14.20;1.00;;;;;;4852365;29;20297;-64
2022/11/09 08:28:02;;;;;;;5.20;1.58;;;14.10;1.00;;;;;;4857804;29;20218;-64
2022/11/09 08:30:30;;;;;;;5.13;1.67;;;14.10;1.00;;;;;;4846243;29;20198;-64
2022/11/09 08:33:02;;;;;;;3.73;1.43;;;14.00;1.00;;;;;;4844729;29;20206;-64
2022/11/09 08:35:29;;;;;;;5.10;1.40;;;14.20;1.00;;;;;;4859732;29;20560;-65
2022/11/09 08:38:00;;;;;;;5.40;1.48;;;14.20;1.00;;;;;;4844066;29;20564;-65
2022/11/09 08:40:27;;;;;;;4.17;1.40;;;14.40;1.00;;;;;;4845545;29;20222;-64
2022/11/09 08:42:54;;;;;;;4.03;1.40;;;14.50;1.00;;;;;;4844903;29;20202;-64
2022/11/09 08:45:21;;;;;;;7.33;1.53;;;14.70;1.00;;;;;;4855503;29;20206;-64
2022/11/09 08:47:56;;;;;;;5.25;1.60;;;14.90;1.00;;;;;;4839624;29;20641;-64
2022/11/09 08:50:23;;;;;;;2.13;1.25;;;14.90;1.00;;;;;;4839738;29;20265;-65
2022/11/09 08:52:50;;;;;;;4.18;1.60;;;15.00;1.00;;;;;;4840074;29;20459;-65
2022/11/09 08:55:17;;;;;;;3.38;1.35;;;15.30;1.00;;;;;;4839524;29;20211;-67
2022/11/09 08:57:44;;;;;;;4.18;1.70;;;16.00;1.00;;;;;;4840950;29;20228;-65
2022/11/09 09:00:11;;;;;;;1.85;1.10;;;17.90;1.00;;;;;;4838858;29;20232;-63
2022/11/09 09:02:38;;;;;;;3.10;1.23;;;19.90;1.00;;;;;;4840877;29;20216;-65
2022/11/09 09:05:05;;;;;;;3.08;1.20;;;19.10;1.00;;;;;;4859027;29;20217;-65
2022/11/09 09:07:32;;;;;;;2.55;1.23;;;18.70;1.00;;;;;;4840282;29;20233;-63
2022/11/09 09:09:59;;;;;;;3.72;1.50;;;20.40;1.00;;;;;;4840180;29;20202;-64
2022/11/09 09:12:26;;;;;;;3.60;1.60;;;20.60;1.00;;;;;;4844551;29;20234;-65
2022/11/09 09:14:54;;;;;;;3.90;1.45;;;18.60;1.00;;;;;;4843250;29;20191;-64
2022/11/09 09:17:21;;;;;;;3.35;1.40;;;20.50;1.00;;;;;;4843727;29;20191;-63
2022/11/09 09:19:48;;;;;;;4.22;2.25;;;21.40;1.00;;;;;;4843492;29;20662;-65
2022/11/09 09:22:16;;;;;;;10.23;1.75;;;22.20;1.00;;;;;;4843122;29;20256;-65
2022/11/09 09:24:43;;;;;;;3.08;1.40;;;21.70;1.00;;;;;;4841265;29;20230;-64
2022/11/09 09:27:10;;;;;;;3.08;1.52;;;21.30;1.00;;;;;;4843567;29;20203;-67
2022/11/09 09:29:37;;;;;;;5.28;1.40;;;22.70;1.00;;;;;;4843564;29;20218;-65
2022/11/09 09:32:04;;;;;;;2.60;1.40;;;22.50;1.00;;;;;;4841478;29;20199;-65
2022/11/09 09:34:31;;;;;;;5.43;1.90;;;24.80;1.00;;;;;;4843390;29;20279;-65
2022/11/09 09:36:57;;;;;;;4.15;1.90;;;25.40;1.00;;;;;;4845777;29;20202;-65
2022/11/09 09:39:24;;;;;;;8.27;5.15;;;25.00;1.00;;;;;;4843281;29;20435;-64
2022/11/09 09:41:55;;;;;;;5.32;3.38;;;25.70;1.00;;;;;;4841715;29;20667;-65
2022/11/09 09:44:43;;;;;;;7.18;2.92;;;25.00;1.00;;;;;;4846115;29;20199;-63
2022/11/09 09:47:16;;;;;;;6.97;2.90;;;23.40;1.00;;;;;;4842797;29;20674;-65
2022/11/09 09:50:09;;;;;;;4.78;3.17;;;25.00;1.00;;;;;;4844309;29;20223;-65
2022/11/09 09:52:49;;;;;;;2.22;1.70;;;25.60;1.00;;;;;;4838267;29;20776;-64
2022/11/09 09:55:39;;;;;;;2.33;1.65;;;27.60;1.00;;;;;;4859114;29;20903;-64
2022/11/09 09:58:12;;;;;;;4.90;1.50;;;27.30;1.00;;;;;;4840527;29;20218;-63
2022/11/09 10:00:41;;;;;;;3.28;1.70;;;25.00;1.00;;;;;;4842282;29;20301;-62
2022/11/09 10:03:17;;;;;;;4.32;1.67;;;24.50;1.00;;;;;;4839897;29;20298;-65
2022/11/09 10:05:56;;;;;;;5.97;2.08;;;22.70;1.00;;;;;;4840689;29;20202;-65
2022/11/09 10:08:26;;;;;;;4.43;1.60;;;23.10;1.00;;;;;;4844810;29;20931;-64
2022/11/09 10:11:23;;;;;;;7.28;1.77;;;23.90;1.00;;;;;;4839881;29;20227;-65
2022/11/09 10:14:11;;;;;;;4.70;1.63;;;22.90;1.00;;;;;;4838766;29;20253;-65
2022/11/09 10:17:03;;;;;;;3.33;1.23;;;22.40;1.00;;;;;;4838901;29;20199;-65
2022/11/09 10:19:48;;;;;;;3.80;1.70;;;21.70;1.00;;;;;;4842053;29;20207;-64
2022/11/09 10:22:24;;;;;;;5.13;1.65;;;19.70;1.00;;;;;;4854134;29;20210;-63
2022/11/09 10:24:58;;;;;;;5.10;1.88;;;19.60;1.00;;;;;;4847016;29;20720;-64
2022/11/09 10:27:53;;;;;;;4.38;1.60;;;20.30;1.00;;;;;;4847316;29;20218;-65
2022/11/09 10:30:22;;;;;;;2.58;1.30;;;19.90;1.00;;;;;;4845862;29;20235;-65
2022/11/09 10:32:55;;;;;;;6.43;1.50;;;20.60;1.00;;;;;;4847678;29;20203;-65
2022/11/09 10:35:33;;;;;;;3.75;1.40;;;20.90;1.00;;;;;;4846924;29;20218;-66
2022/11/09 10:38:00;;;;;;;4.13;1.23;;;19.00;1.00;;;;;;4853231;29;20246;-63
2022/11/09 10:40:39;;;;;;;4.28;1.52;;;18.50;1.00;;;;;;4861069;29;20256;-65
2022/11/09 10:43:24;;;;;;;10.15;2.85;;;18.50;1.00;;;;;;4860669;29;20209;-63
2022/11/09 10:46:10;;;;;;;3.13;1.33;;;20.00;1.00;;;;;;4848334;29;20699;-66
2022/11/09 10:48:56;;;;;;;3.25;1.58;;;19.30;1.00;;;;;;4848195;29;20307;-66
2022/11/09 10:51:46;;;;;;;3.17;1.42;;;18.30;1.00;;;;;;4846967;29;20206;-64
2022/11/09 10:54:36;;;;;;;2.05;1.23;;;19.10;1.00;;;;;;4847957;29;20229;-64
2022/11/09 10:57:23;;;;;;;5.50;1.77;;;19.40;1.00;;;;;;4848247;29;20208;-64
2022/11/09 11:00:18;;;;;;;3.22;1.15;;;19.40;1.00;;;;;;4847184;29;20216;-66
2022/11/09 11:03:17;;;;;;;6.88;2.92;;;18.80;1.00;;;;;;4848608;29;20220;-65
2022/11/09 11:06:15;;;;;;;7.72;2.42;;;17.80;1.00;;;;;;4848508;29;20765;-64
2022/11/09 11:09:04;;;;;;;3.97;1.58;;;18.20;1.00;;;;;;4856556;29;20226;-63
2022/11/09 11:12:13;;;;;;;4.03;1.48;;;18.40;1.00;;;;;;4851003;29;20277;-63
2022/11/09 11:14:58;;;;;;;6.35;1.65;;;18.10;1.00;;;;;;4842087;29;20217;-64
2022/11/09 11:17:44;;;;;;;7.90;2.65;;;17.80;1.00;;;;;;4845967;29;20302;-63
2022/11/09 11:20:35;;;;;;;4.30;1.30;;;18.40;1.00;;;;;;4845393;29;20323;-65
2022/11/09 11:23:24;;;;;;;3.55;1.40;;;17.80;1.00;;;;;;4847431;29;20324;-66
2022/11/09 11:26:23;;;;;;;6.35;2.65;;;17.50;1.00;;;;;;4845872;29;20234;-66
2022/11/09 11:29:26;;;;;;;6.68;2.00;;;17.80;1.00;;;;;;4846430;29;20700;-64
2022/11/09 11:32:17;;;;;;;4.30;1.77;;;18.00;1.00;;;;;;4846221;29;20218;-64
2022/11/09 11:35:21;;;;;;;6.55;2.88;;;18.80;1.00;;;;;;4842200;29;20274;-65
2022/11/09 11:38:13;;;;;;;4.32;1.90;;;18.30;1.00;;;;;;4839645;29;20578;-66
2022/11/09 11:41:43;;;;;;;5.72;2.50;;;17.80;1.00;;;;;;4841856;29;20210;-65
2022/11/09 11:44:49;;;;;;;3.50;1.48;;;17.90;1.00;;;;;;4846678;29;20531;-64
2022/11/09 11:48:36;;;;;;;5.18;1.90;;;17.70;1.00;;;;;;4843986;29;20233;-64
2022/11/09 11:51:40;;;;;;;3.20;1.58;;;19.20;1.00;;;;;;4819825;29;20222;-65
2022/11/09 11:54:46;;;;;;;5.22;1.50;;;19.10;1.00;;;;;;4838068;29;20292;-65
2022/11/09 11:57:45;;;;;;;4.55;1.73;;;19.20;1.00;;;;;;4822221;29;20225;-64
2022/11/09 12:00:41;;;;;;;5.57;1.38;;;20.10;1.00;;;;;;4843228;29;20206;-64
2022/11/09 12:03:32;;;;;;;6.03;1.70;;;19.30;1.00;;;;;;4832062;29;20762;-64
2022/11/09 12:06:27;;;;;;;2.78;1.50;;;18.20;1.00;;;;;;4847195;29;20220;-65
2022/11/09 12:09:21;;;;;;;5.07;1.77;;;18.10;1.00;;;;;;4831147;29;20218;-65
2022/11/09 12:12:25;;;;;;;4.72;1.58;;;17.80;1.00;;;;;;4841177;29;20302;-65
2022/11/09 12:15:36;;;;;;;4.47;1.67;;;17.70;1.00;;;;;;4845954;29;20552;-63
2022/11/09 12:18:24;;;;;;;5.65;2.42;;;18.20;1.00;;;;;;4844023;29;20214;-64
2022/11/09 12:21:17;;;;;;;3.40;1.48;;;18.40;1.00;;;;;;4838287;29;21087;-65
2022/11/09 12:24:18;;;;;;;4.55;1.63;;;17.60;1.00;;;;;;4836598;29;20213;-64
2022/11/09 12:27:20;;;;;;;5.53;1.65;;;18.20;1.00;;;;;;4842323;29;20209;-63
2022/11/09 12:30:26;;;;;;;5.97;1.40;;;18.20;1.00;;;;;;4840001;29;20226;-62
2022/11/09 12:33:20;;;;;;;4.40;1.48;;;17.80;1.00;;;;;;4843391;29;20202;-65
2022/11/09 12:36:17;;;;;;;4.20;1.30;;;17.70;1.00;;;;;;4843175;29;20299;-63
2022/11/09 12:39:12;;;;;;;4.00;1.35;;;17.60;1.00;;;;;;4841008;29;20284;-65
2022/11/09 12:42:19;;;;;;;5.13;1.88;;;17.60;1.00;;;;;;4842570;29;20674;-64
2022/11/09 12:45:29;;;;;;;5.70;1.35;;;17.50;1.00;;;;;;4845878;29;20221;-63
2022/11/09 12:48:28;;;;;;;7.47;1.83;;;17.40;1.00;;;;;;4830493;29;20255;-64
2022/11/09 12:51:15;;;;;;;5.25;1.67;;;17.60;1.00;;;;;;4844097;29;20208;-62
2022/11/09 12:54:10;;;;;;;4.93;2.50;;;17.70;1.00;;;;;;4837003;29;20222;-63
2022/11/09 12:56:58;;;;;;;8.60;4.90;;;17.70;1.00;;;;;;4842283;29;20304;-65
2022/11/09 12:59:50;;;;;;;7.47;2.90;;;17.60;1.00;;;;;;4841381;29;20689;-64
2022/11/09 13:02:42;;;;;;;12.48;5.10;;;17.40;1.00;;;;;;4840046;29;20230;-65
2022/11/09 13:05:38;;;;;;;8.15;3.15;;;17.60;1.00;;;;;;4839971;29;20377;-65
2022/11/09 13:08:28;;;;;;;6.43;1.75;;;17.60;1.00;;;;;;4841107;29;20328;-63
2022/11/09 13:11:20;;;;;;;9.40;3.38;;;17.40;1.00;;;;;;4841263;29;20205;-65
2022/11/09 13:14:21;;;;;;;8.60;1.40;;;17.20;1.00;;;;;;4838529;29;20284;-66
2022/11/09 13:17:25;;;;;;;4.45;1.83;;;16.60;1.00;;;;;;4843596;29;20217;-63
2022/11/09 13:20:35;;;;;;;6.90;1.73;;;16.50;1.00;;;;;;4839005;29;20346;-65
2022/11/09 13:23:41;;;;;;;5.57;1.45;;;16.40;1.00;;;;;;4839053;29;20354;-65
2022/11/09 13:26:47;;;;;;;4.20;1.83;;;16.50;1.00;;;;;;4842433;29;20802;-65
2022/11/09 13:29:38;;;;;;;2.47;1.48;;;16.40;1.00;;;;;;4852050;29;20270;-65
2022/11/09 13:32:28;;;;;;;6.15;1.63;;;16.30;1.00;;;;;;4839332;29;20274;-65
2022/11/09 13:35:38;;;;;;;4.47;1.25;;;16.10;1.00;;;;;;4840234;29;20202;-65
2022/11/09 13:38:31;;;;;;;6.07;2.03;;;16.10;1.00;;;;;;4838744;29;20221;-65
2022/11/09 13:41:41;;;;;;;7.80;1.70;;;16.10;1.00;;;;;;4843348;29;20299;-63
2022/11/09 13:44:28;;;;;;;6.15;2.17;;;16.10;1.00;;;;;;4841851;29;20204;-65
2022/11/09 13:47:29;;;;;;;6.78;2.17;;;16.20;1.00;;;;;;4840828;29;20218;-66